Terminal Aerodrome Forecast
Issued by NWS Billings, MT

Home | Current Version | Previous Version | Text Only | Print | Product List | Glossary On
Versions: 1 2 3 4 5 6 7 8 9 10 11 12 13 14 15 16 17 18 19 20 21 22 23 24 25 26
000
FTUS45 KBYZ 032332
TAFMLS
TAF
KMLS 032332Z 0400/0424 10011KT P6SM SCT200
     FM040400 11011KT P6SM BKN200 WS018/14033KT
     FM041300 14010KT P6SM BKN150
     FM042100 29015KT P6SM VCTS SCT070CB BKN100=

USA.gov is the U.S. government's official web portal to all federal, state and local government web resources and services.